Time;durP1;ratioP1;P1;durP2;ratioP2;P2;SDS_P1;SDS_P2;PMS_P1;PMS_P2;Temp;Humidity;BMP_temperature;BMP_pressure;BME280_temperature;BME280_humidity;BME280_pressure;Samples;Min_cycle;Max_cycle;Signal;HPM_P1;HPM_P2
2021/05/12 00:00:26;;;;;;;2.97;2.83;;;19.60;38.10;;;;;;4991291;28;20202;-74
2021/05/12 00:02:52;;;;;;;3.00;2.80;;;19.60;38.10;;;;;;4992620;28;20540;-73
2021/05/12 00:05:22;;;;;;;3.23;3.03;;;19.70;38.10;;;;;;4992146;28;20505;-74
2021/05/12 00:07:48;;;;;;;3.13;2.93;;;19.60;38.00;;;;;;4992454;28;20181;-73
2021/05/12 00:10:14;;;;;;;3.53;3.23;;;19.70;38.10;;;;;;4991132;28;20437;-71
2021/05/12 00:12:40;;;;;;;3.03;2.93;;;19.60;38.00;;;;;;4992373;28;20182;-74
2021/05/12 00:15:09;;;;;;;4.23;3.20;;;19.60;38.00;;;;;;4992287;28;20417;-74
2021/05/12 00:17:37;;;;;;;3.60;3.40;;;19.60;37.90;;;;;;4992588;28;20421;-73
2021/05/12 00:20:05;;;;;;;2.67;2.57;;;19.60;37.90;;;;;;4989932;28;20437;-72
2021/05/12 00:25:25;;;;;;;2.80;2.60;;;19.60;38.00;;;;;;4986832;28;20432;-72
2021/05/12 00:27:51;;;;;;;2.90;2.80;;;19.60;37.90;;;;;;4992184;28;20757;-73
2021/05/12 00:30:19;;;;;;;3.27;2.97;;;19.60;37.80;;;;;;4990686;28;20463;-72
2021/05/12 00:32:45;;;;;;;3.00;2.80;;;19.60;37.90;;;;;;4990574;28;20449;-71
2021/05/12 00:35:12;;;;;;;3.00;2.90;;;19.60;38.00;;;;;;4991673;28;20413;-71
2021/05/12 00:37:38;;;;;;;2.70;2.57;;;19.60;37.90;;;;;;4991925;28;21129;-71
2021/05/12 00:40:05;;;;;;;2.83;2.73;;;19.60;37.80;;;;;;4989938;28;20441;-72
2021/05/12 00:42:33;;;;;;;3.40;3.20;;;19.60;37.90;;;;;;4991919;28;20460;-74
2021/05/12 00:44:59;;;;;;;2.80;2.70;;;19.60;37.90;;;;;;4992105;28;20475;-73
2021/05/12 00:47:30;;;;;;;2.60;2.50;;;19.60;37.70;;;;;;4991240;28;20491;-71
2021/05/12 00:49:56;;;;;;;2.53;2.43;;;19.60;37.70;;;;;;4991931;28;20433;-72
2021/05/12 00:52:24;;;;;;;3.10;2.90;;;19.60;37.90;;;;;;4992227;28;20423;-72
2021/05/12 00:54:50;;;;;;;6.00;3.20;;;19.60;37.80;;;;;;4992851;28;20413;-71
2021/05/12 00:57:16;;;;;;;2.83;2.73;;;19.60;37.70;;;;;;4993384;28;20409;-71
2021/05/12 00:59:44;;;;;;;2.93;2.73;;;19.60;37.70;;;;;;4993912;28;20438;-72
2021/05/12 01:02:10;;;;;;;2.83;2.60;;;19.60;37.70;;;;;;4992392;28;20799;-72
2021/05/12 01:04:37;;;;;;;3.00;2.90;;;19.60;38.00;;;;;;4992240;28;20416;-71
2021/05/12 01:07:04;;;;;;;3.13;2.90;;;19.60;37.70;;;;;;4991675;28;20530;-72
2021/05/12 01:09:29;;;;;;;2.80;2.60;;;19.60;37.70;;;;;;4991660;28;20434;-70
2021/05/12 01:11:55;;;;;;;2.90;2.70;;;19.60;37.90;;;;;;4991526;28;20409;-72
2021/05/12 01:14:20;;;;;;;3.00;2.80;;;19.60;37.90;;;;;;4991445;28;20197;-74
2021/05/12 01:16:47;;;;;;;3.67;3.07;;;19.60;37.90;;;;;;4991531;28;20255;-72
2021/05/12 01:19:14;;;;;;;3.07;2.90;;;19.60;37.80;;;;;;4990815;28;20193;-73
2021/05/12 01:21:40;;;;;;;3.97;2.97;;;19.60;37.70;;;;;;4991436;28;20405;-71
2021/05/12 01:24:06;;;;;;;2.90;2.73;;;19.60;37.80;;;;;;4991285;28;20452;-71
2021/05/12 01:26:32;;;;;;;3.30;3.00;;;19.50;37.60;;;;;;4990890;28;20416;-72
2021/05/12 01:28:58;;;;;;;3.10;2.97;;;19.60;37.70;;;;;;4991203;28;20437;-72
2021/05/12 01:31:32;;;;;;;2.87;2.67;;;19.50;37.60;;;;;;4990282;28;20875;-72
2021/05/12 01:33:58;;;;;;;3.33;2.63;;;19.60;37.70;;;;;;4991112;28;20182;-72
2021/05/12 01:36:25;;;;;;;2.67;2.57;;;19.50;37.60;;;;;;4990850;28;21059;-72
2021/05/12 01:38:51;;;;;;;2.70;2.60;;;19.60;37.70;;;;;;4991248;28;20445;-71
2021/05/12 01:41:19;;;;;;;2.73;2.53;;;19.50;37.50;;;;;;4990814;28;20413;-72
2021/05/12 01:43:45;;;;;;;3.20;3.00;;;19.60;37.60;;;;;;4991200;28;20457;-71
2021/05/12 01:46:11;;;;;;;3.50;2.80;;;19.50;37.50;;;;;;4989558;28;20526;-73
2021/05/12 01:48:38;;;;;;;2.97;2.77;;;19.50;37.50;;;;;;4990579;28;20216;-72
2021/05/12 01:51:08;;;;;;;3.23;3.00;;;19.60;37.60;;;;;;4990921;28;20413;-72
2021/05/12 01:53:34;;;;;;;2.60;2.50;;;19.50;37.50;;;;;;4990965;28;20417;-72
2021/05/12 01:55:59;;;;;;;2.67;2.57;;;19.50;37.50;;;;;;4990484;28;20974;-72
2021/05/12 01:58:25;;;;;;;3.20;3.00;;;19.50;37.50;;;;;;4989769;28;20181;-72
2021/05/12 02:00:53;;;;;;;3.10;3.00;;;19.50;37.40;;;;;;4990894;28;20567;-71
2021/05/12 02:03:19;;;;;;;2.63;2.53;;;19.50;37.50;;;;;;4989458;28;20487;-72
2021/05/12 02:05:46;;;;;;;2.90;2.70;;;19.50;37.40;;;;;;4990775;28;20908;-73
2021/05/12 02:08:13;;;;;;;2.60;2.50;;;19.50;37.40;;;;;;4990725;28;20448;-72
2021/05/12 02:10:42;;;;;;;2.80;2.60;;;19.60;37.50;;;;;;4990239;28;20429;-70
2021/05/12 02:13:09;;;;;;;2.70;2.60;;;19.50;37.40;;;;;;4990583;28;20424;-72
2021/05/12 02:15:34;;;;;;;2.73;2.63;;;19.50;37.40;;;;;;4990508;28;20460;-72
2021/05/12 02:18:01;;;;;;;2.50;2.40;;;19.50;37.30;;;;;;4990500;28;20449;-72
2021/05/12 02:20:29;;;;;;;2.60;2.40;;;19.50;37.30;;;;;;4989827;28;20441;-72
2021/05/12 02:22:56;;;;;;;2.60;2.43;;;19.50;37.30;;;;;;4990460;28;20443;-72
2021/05/12 02:28:43;;;;;;;3.03;2.90;;;19.50;37.30;;;;;;4987053;28;20411;-73
2021/05/12 02:31:09;;;;;;;2.97;2.80;;;19.50;37.30;;;;;;4985514;28;20936;-72
2021/05/12 02:33:34;;;;;;;3.00;2.80;;;19.50;37.30;;;;;;4984258;28;20189;-71
2021/05/12 02:36:00;;;;;;;2.60;2.50;;;19.50;37.30;;;;;;4986735;28;20188;-71
2021/05/12 02:38:26;;;;;;;3.67;3.40;;;19.50;37.30;;;;;;4987529;28;20181;-72
2021/05/12 02:40:52;;;;;;;2.40;2.30;;;19.50;37.30;;;;;;4990471;28;20286;-72
2021/05/12 02:43:17;;;;;;;2.50;2.40;;;19.50;37.30;;;;;;4991704;28;20501;-72
2021/05/12 02:45:43;;;;;;;2.70;2.60;;;19.50;37.20;;;;;;4993684;28;20170;-72
2021/05/12 02:48:09;;;;;;;3.20;2.93;;;19.50;38.00;;;;;;4993859;28;20316;-71
2021/05/12 02:50:40;;;;;;;2.60;2.50;;;19.50;37.20;;;;;;4993874;28;20347;-72
2021/05/12 02:53:08;;;;;;;2.93;2.73;;;19.50;37.20;;;;;;4994005;28;20205;-72
2021/05/12 02:55:34;;;;;;;2.77;2.67;;;19.50;37.10;;;;;;4993652;28;20428;-72
2021/05/12 02:58:00;;;;;;;2.70;2.60;;;19.50;37.10;;;;;;4993742;28;20414;-72
2021/05/12 03:00:28;;;;;;;5.03;2.93;;;19.50;37.20;;;;;;4992643;28;20499;-72
2021/05/12 03:02:55;;;;;;;2.63;2.53;;;19.50;37.10;;;;;;4993564;28;20449;-72
2021/05/12 03:05:21;;;;;;;2.80;2.70;;;19.50;37.10;;;;;;4993542;28;20417;-72
2021/05/12 03:07:48;;;;;;;2.67;2.53;;;19.50;37.10;;;;;;4992276;28;20405;-72
2021/05/12 03:10:16;;;;;;;2.70;2.60;;;19.40;37.10;;;;;;4993648;28;21018;-72
2021/05/12 03:12:41;;;;;;;2.40;2.30;;;19.50;37.10;;;;;;4993621;28;20468;-72
2021/05/12 03:15:10;;;;;;;2.60;2.50;;;19.40;37.00;;;;;;4993208;28;20421;-73
2021/05/12 03:17:36;;;;;;;2.93;2.83;;;19.50;37.20;;;;;;4993272;28;20178;-73
2021/05/12 03:20:03;;;;;;;2.73;2.63;;;19.50;37.10;;;;;;4993531;28;20429;-73
2021/05/12 03:22:30;;;;;;;2.57;2.47;;;19.50;37.00;;;;;;4993666;28;20445;-73
2021/05/12 03:24:55;;;;;;;2.50;2.40;;;19.40;37.00;;;;;;4993424;28;20432;-73
2021/05/12 03:27:21;;;;;;;2.80;2.70;;;19.40;36.90;;;;;;4993677;28;20413;-73
2021/05/12 03:29:47;;;;;;;2.40;2.30;;;19.40;36.90;;;;;;4993753;28;20214;-72
2021/05/12 03:32:12;;;;;;;2.70;2.60;;;19.40;36.90;;;;;;4993597;28;20367;-72
2021/05/12 03:34:38;;;;;;;4.90;2.60;;;19.40;36.90;;;;;;4994044;28;20535;-73
2021/05/12 03:37:03;;;;;;;2.97;2.80;;;19.50;36.90;;;;;;4993629;28;20224;-72
2021/05/12 03:39:29;;;;;;;2.30;2.20;;;19.40;36.80;;;;;;4993461;28;20190;-73
2021/05/12 03:41:56;;;;;;;2.60;2.50;;;19.40;36.80;;;;;;4993527;28;20554;-72
2021/05/12 03:44:22;;;;;;;2.80;2.70;;;19.50;37.00;;;;;;4993473;28;20413;-73
2021/05/12 03:46:47;;;;;;;2.90;2.80;;;19.40;36.80;;;;;;4992937;28;20471;-72
2021/05/12 03:49:13;;;;;;;2.63;2.53;;;19.40;36.80;;;;;;4992311;28;20863;-72
2021/05/12 03:51:38;;;;;;;3.00;2.73;;;19.40;36.80;;;;;;4993223;28;20205;-72
2021/05/12 03:54:04;;;;;;;4.17;2.63;;;19.40;36.80;;;;;;4992711;28;20197;-72
2021/05/12 03:56:30;;;;;;;2.50;2.40;;;19.40;36.80;;;;;;4991343;28;20213;-73
2021/05/12 03:58:55;;;;;;;2.77;2.67;;;19.40;36.80;;;;;;4991721;28;20194;-72
2021/05/12 04:01:21;;;;;;;2.53;2.43;;;19.40;36.80;;;;;;4992825;28;20338;-72
2021/05/12 04:03:46;;;;;;;2.73;2.60;;;19.40;36.80;;;;;;4992715;28;20293;-73
2021/05/12 04:06:12;;;;;;;2.90;2.80;;;19.40;37.50;;;;;;4993069;28;20174;-74
2021/05/12 04:08:37;;;;;;;2.60;2.50;;;19.50;36.90;;;;;;4992039;28;20178;-72
2021/05/12 04:11:03;;;;;;;2.90;2.80;;;19.50;36.80;;;;;;4994041;28;20573;-73
2021/05/12 04:13:29;;;;;;;2.97;2.77;;;19.40;36.80;;;;;;4993856;28;20264;-73
2021/05/12 04:15:54;;;;;;;2.90;2.80;;;19.40;36.80;;;;;;4994134;28;20201;-72
2021/05/12 04:18:20;;;;;;;2.77;2.60;;;19.50;36.80;;;;;;4996379;28;20505;-71
2021/05/12 04:20:45;;;;;;;2.83;2.67;;;19.40;36.70;;;;;;4994389;28;20197;-74
2021/05/12 04:23:11;;;;;;;3.00;2.90;;;19.50;36.80;;;;;;4991648;28;20336;-74
2021/05/12 04:25:36;;;;;;;3.00;2.90;;;19.50;36.80;;;;;;4991336;28;20190;-72
2021/05/12 04:28:02;;;;;;;2.70;2.60;;;19.50;36.90;;;;;;4992206;28;20178;-72
2021/05/12 04:30:30;;;;;;;3.20;2.90;;;19.50;36.80;;;;;;4990228;28;20728;-70
2021/05/12 04:32:59;;;;;;;3.10;2.33;;;19.60;36.90;;;;;;4991961;28;20417;-71
2021/05/12 04:35:25;;;;;;;3.40;3.10;;;19.50;36.80;;;;;;4991746;28;20904;-71
2021/05/12 04:37:50;;;;;;;2.70;2.50;;;19.60;36.60;;;;;;4991475;28;20413;-71
2021/05/12 04:40:17;;;;;;;2.77;2.57;;;19.60;36.60;;;;;;4983825;28;20858;-72
2021/05/12 04:42:42;;;;;;;2.53;2.43;;;19.60;36.50;;;;;;4972945;28;20281;-72
2021/05/12 04:45:10;;;;;;;6.30;3.10;;;19.60;36.40;;;;;;4986472;28;20422;-72
2021/05/12 04:47:37;;;;;;;2.80;2.70;;;19.60;36.50;;;;;;4971877;28;20170;-72
2021/05/12 04:50:05;;;;;;;2.97;2.77;;;19.70;36.50;;;;;;4986744;28;20558;-73
2021/05/12 04:52:30;;;;;;;2.73;2.53;;;19.60;36.60;;;;;;4971435;28;20426;-72
2021/05/12 04:54:56;;;;;;;2.77;2.67;;;19.70;36.70;;;;;;4971789;28;20477;-73
2021/05/12 04:57:21;;;;;;;3.30;3.10;;;19.70;36.50;;;;;;4971995;28;20179;-72
2021/05/12 04:59:47;;;;;;;3.13;3.00;;;19.70;36.50;;;;;;4969664;28;20226;-73
2021/05/12 05:02:14;;;;;;;3.40;3.20;;;19.70;36.70;;;;;;4970990;28;20725;-72
2021/05/12 05:04:40;;;;;;;4.13;3.20;;;19.70;36.60;;;;;;4971851;28;20175;-73
2021/05/12 05:07:06;;;;;;;3.00;2.80;;;19.70;36.30;;;;;;4971180;28;20407;-72
2021/05/12 05:09:32;;;;;;;2.70;2.60;;;19.70;36.30;;;;;;4971443;28;20831;-72
2021/05/12 05:11:58;;;;;;;2.53;2.43;;;19.80;36.40;;;;;;4970744;28;20541;-72
2021/05/12 05:14:23;;;;;;;2.90;2.70;;;19.80;36.10;;;;;;4971800;28;20174;-72
2021/05/12 05:16:49;;;;;;;2.97;2.80;;;19.80;36.10;;;;;;4971489;28;20214;-72
2021/05/12 05:19:15;;;;;;;4.57;2.97;;;19.80;36.10;;;;;;4971855;28;20195;-72
2021/05/12 05:21:41;;;;;;;3.00;2.80;;;19.70;35.90;;;;;;4971163;28;20186;-73
2021/05/12 05:24:10;;;;;;;2.53;2.43;;;19.80;36.00;;;;;;4971624;28;20230;-71
2021/05/12 05:26:36;;;;;;;2.70;2.60;;;19.80;36.00;;;;;;4971222;28;20738;-72
2021/05/12 05:29:02;;;;;;;3.00;2.80;;;19.80;36.00;;;;;;4970927;28;20462;-73
2021/05/12 05:31:28;;;;;;;3.00;2.80;;;19.80;36.00;;;;;;4973320;28;20418;-75
2021/05/12 05:33:54;;;;;;;3.40;3.10;;;19.80;36.90;;;;;;4971308;28;20425;-71
2021/05/12 05:36:20;;;;;;;4.13;3.13;;;19.90;37.30;;;;;;4970786;28;20225;-72
2021/05/12 05:38:45;;;;;;;3.30;3.00;;;19.90;37.20;;;;;;4971040;28;20410;-72
2021/05/12 05:41:11;;;;;;;6.53;3.80;;;19.90;37.20;;;;;;4985709;28;20599;-72
2021/05/12 05:43:36;;;;;;;5.03;3.30;;;19.90;37.60;;;;;;4970541;28;20253;-70
2021/05/12 05:46:02;;;;;;;4.10;3.70;;;20.00;37.60;;;;;;4970928;28;20190;-71
2021/05/12 05:48:27;;;;;;;3.70;3.40;;;19.90;36.60;;;;;;4971180;28;20233;-71
2021/05/12 05:50:53;;;;;;;3.40;3.10;;;20.00;36.70;;;;;;4970700;28;20201;-71
2021/05/12 05:53:20;;;;;;;5.27;3.83;;;20.00;36.70;;;;;;4971074;28;20657;-71
2021/05/12 05:55:46;;;;;;;4.43;3.30;;;20.00;36.90;;;;;;4970651;28;20280;-70
2021/05/12 05:58:12;;;;;;;5.13;3.27;;;20.00;37.10;;;;;;4970984;28;20414;-72
2021/05/12 06:00:40;;;;;;;3.07;2.87;;;20.00;36.80;;;;;;4971301;28;20429;-71
2021/05/12 06:03:06;;;;;;;5.53;4.23;;;20.00;36.60;;;;;;4971038;28;20293;-71
2021/05/12 06:05:32;;;;;;;6.03;3.57;;;20.00;37.00;;;;;;4970536;28;20493;-71
2021/05/12 06:07:57;;;;;;;3.70;3.23;;;20.00;36.50;;;;;;4993483;28;20590;-72
2021/05/12 06:10:23;;;;;;;8.70;4.30;;;20.00;37.00;;;;;;5009513;28;20951;-72
2021/05/12 06:12:50;;;;;;;11.50;4.70;;;20.00;37.10;;;;;;5010042;28;20170;-71
2021/05/12 06:15:19;;;;;;;8.80;4.53;;;20.00;37.30;;;;;;5009921;28;20232;-71
2021/05/12 06:17:45;;;;;;;10.87;5.07;;;20.00;37.30;;;;;;5010833;28;20419;-71
2021/05/12 06:20:11;;;;;;;6.00;4.97;;;20.00;37.80;;;;;;5013778;28;20451;-71
2021/05/12 06:22:37;;;;;;;8.87;5.37;;;20.10;37.80;;;;;;5013361;28;20284;-71
2021/05/12 06:25:03;;;;;;;8.30;4.63;;;20.10;37.80;;;;;;5013650;28;20471;-70
2021/05/12 06:27:28;;;;;;;6.17;4.33;;;20.10;37.70;;;;;;5013658;28;20170;-71
2021/05/12 06:29:54;;;;;;;10.93;5.00;;;20.10;37.80;;;;;;5010706;28;20456;-72
2021/05/12 06:32:20;;;;;;;8.90;4.90;;;20.10;37.80;;;;;;4994323;28;20193;-71
2021/05/12 06:34:45;;;;;;;5.63;5.10;;;20.10;37.80;;;;;;4994061;28;20621;-71
2021/05/12 06:37:11;;;;;;;10.67;4.63;;;20.10;37.80;;;;;;4992326;28;20421;-71
2021/05/12 06:39:37;;;;;;;11.70;4.47;;;20.10;37.80;;;;;;4992428;28;20229;-72
2021/05/12 06:42:02;;;;;;;6.90;4.20;;;20.10;37.70;;;;;;4993855;28;20181;-71
2021/05/12 06:44:28;;;;;;;5.90;3.97;;;20.10;37.30;;;;;;4992953;28;20236;-71
2021/05/12 06:46:53;;;;;;;8.20;5.07;;;20.00;36.80;;;;;;4993665;28;20192;-72
2021/05/12 06:49:20;;;;;;;5.23;3.90;;;19.90;36.50;;;;;;4992441;28;20288;-71
2021/05/12 06:51:46;;;;;;;5.97;4.03;;;19.80;36.70;;;;;;4992125;28;20178;-72
2021/05/12 06:54:11;;;;;;;4.37;4.00;;;19.80;36.30;;;;;;4993908;28;20416;-71
2021/05/12 06:56:37;;;;;;;5.47;3.73;;;19.70;36.70;;;;;;4993986;28;20492;-71
2021/05/12 06:59:03;;;;;;;5.97;4.17;;;19.70;36.60;;;;;;4993293;28;20189;-73
2021/05/12 07:01:29;;;;;;;5.73;3.83;;;19.60;36.40;;;;;;4994171;28;20420;-72
2021/05/12 07:03:55;;;;;;;6.20;3.90;;;19.60;36.40;;;;;;4992360;28;20471;-72
2021/05/12 07:06:21;;;;;;;7.80;4.33;;;19.50;36.40;;;;;;4992878;28;20409;-73
2021/05/12 07:08:50;;;;;;;3.73;3.40;;;19.50;36.40;;;;;;5001444;28;20213;-72
2021/05/12 07:11:16;;;;;;;5.27;3.70;;;19.50;36.30;;;;;;4994557;28;20176;-71
2021/05/12 07:13:41;;;;;;;6.10;3.50;;;19.50;36.20;;;;;;4993323;28;20432;-71
2021/05/12 07:16:07;;;;;;;4.60;4.30;;;19.40;36.10;;;;;;4993450;28;20839;-72
2021/05/12 07:18:33;;;;;;;7.63;4.10;;;19.40;36.00;;;;;;4991881;28;20177;-71
2021/05/12 07:20:59;;;;;;;3.53;3.30;;;19.40;36.00;;;;;;4992997;28;20174;-73
2021/05/12 07:23:27;;;;;;;3.53;3.20;;;19.30;35.80;;;;;;4992360;28;21016;-72
2021/05/12 07:25:55;;;;;;;3.67;3.40;;;19.30;35.70;;;;;;4992610;28;20481;-71
2021/05/12 07:28:21;;;;;;;4.27;3.90;;;19.30;35.80;;;;;;4991541;28;20424;-72
2021/05/12 07:30:47;;;;;;;4.30;3.90;;;19.30;35.70;;;;;;4993701;28;20429;-72
2021/05/12 07:33:12;;;;;;;4.20;3.90;;;19.30;35.60;;;;;;4993556;28;20225;-71
2021/05/12 07:35:38;;;;;;;11.90;4.20;;;19.30;35.50;;;;;;4993868;28;20421;-71
2021/05/12 07:38:04;;;;;;;4.50;4.17;;;19.20;35.50;;;;;;4993992;28;20604;-72
2021/05/12 07:40:33;;;;;;;3.70;3.50;;;19.20;35.40;;;;;;4993737;28;20441;-71
2021/05/12 07:43:00;;;;;;;5.27;3.13;;;19.20;35.40;;;;;;4993637;28;20194;-72
2021/05/12 07:45:26;;;;;;;3.73;3.40;;;19.10;35.30;;;;;;4994032;28;20405;-72
2021/05/12 07:47:52;;;;;;;4.30;3.90;;;19.10;35.30;;;;;;4994105;28;20497;-72
2021/05/12 07:50:18;;;;;;;4.23;3.83;;;19.20;35.30;;;;;;4994119;28;20436;-71
2021/05/12 07:52:44;;;;;;;4.70;3.30;;;19.10;35.20;;;;;;4995467;28;20421;-71
2021/05/12 07:55:10;;;;;;;3.40;3.20;;;19.10;35.10;;;;;;4994551;28;20257;-72
2021/05/12 07:57:35;;;;;;;3.33;3.13;;;19.10;35.10;;;;;;4991696;28;20188;-72
2021/05/12 08:00:03;;;;;;;8.03;3.97;;;19.10;35.00;;;;;;4992909;28;20935;-71
2021/05/12 08:02:29;;;;;;;7.13;3.60;;;19.10;35.00;;;;;;4993086;28;20185;-71
2021/05/12 08:04:54;;;;;;;3.93;3.40;;;19.10;35.00;;;;;;4992300;28;20421;-72
2021/05/12 08:07:20;;;;;;;3.47;3.17;;;19.00;34.90;;;;;;4992742;28;20178;-71
2021/05/12 08:09:46;;;;;;;4.57;3.73;;;19.00;34.90;;;;;;4992427;28;20205;-71
2021/05/12 08:12:11;;;;;;;3.33;3.13;;;19.00;34.80;;;;;;4992270;28;20212;-71
2021/05/12 08:14:37;;;;;;;3.80;3.50;;;19.00;34.80;;;;;;4992813;28;20695;-71
2021/05/12 08:17:03;;;;;;;3.50;3.20;;;19.00;34.80;;;;;;4991822;28;20746;-71
2021/05/12 08:19:28;;;;;;;3.10;3.00;;;19.00;34.80;;;;;;4992384;28;20204;-71
2021/05/12 08:21:54;;;;;;;3.43;3.23;;;19.00;34.80;;;;;;4992866;28;20169;-71
2021/05/12 08:24:19;;;;;;;3.30;3.07;;;19.00;34.70;;;;;;4992333;28;20397;-71
2021/05/12 08:26:45;;;;;;;3.57;3.27;;;19.10;34.70;;;;;;4991282;28;20193;-71
2021/05/12 08:29:12;;;;;;;3.47;3.17;;;19.10;34.40;;;;;;4991552;28;20209;-71
2021/05/12 08:31:39;;;;;;;3.03;2.93;;;19.10;34.30;;;;;;4992818;28;20170;-71
2021/05/12 08:34:06;;;;;;;6.90;3.30;;;19.10;34.20;;;;;;4992099;28;20428;-71
2021/05/12 08:36:33;;;;;;;3.17;2.87;;;19.20;34.20;;;;;;4991876;28;20424;-71
2021/05/12 08:38:59;;;;;;;3.00;2.73;;;19.20;34.00;;;;;;4992073;28;20447;-71
2021/05/12 08:41:24;;;;;;;3.40;3.00;;;19.30;34.00;;;;;;4990231;28;20508;-71
2021/05/12 08:43:51;;;;;;;3.17;2.97;;;19.30;34.00;;;;;;4992364;28;20224;-71
2021/05/12 08:46:19;;;;;;;3.43;3.03;;;19.30;33.60;;;;;;4991833;28;20585;-71
2021/05/12 08:48:46;;;;;;;4.97;3.70;;;19.30;33.70;;;;;;4992256;28;20421;-71
2021/05/12 08:51:12;;;;;;;3.20;3.00;;;19.30;33.80;;;;;;4991826;28;20460;-72
2021/05/12 08:53:38;;;;;;;3.40;3.10;;;19.30;33.70;;;;;;4990159;28;20425;-72
2021/05/12 08:56:06;;;;;;;3.20;3.00;;;19.30;33.70;;;;;;4991281;28;20417;-71
2021/05/12 08:58:32;;;;;;;3.40;3.10;;;19.30;33.70;;;;;;4991659;28;20174;-73
2021/05/12 09:00:57;;;;;;;3.00;2.80;;;19.30;33.70;;;;;;4991444;28;20437;-72
2021/05/12 09:03:26;;;;;;;3.03;2.83;;;19.30;33.60;;;;;;4991074;28;20535;-71
2021/05/12 09:05:52;;;;;;;3.30;3.10;;;19.30;33.70;;;;;;4991645;28;20228;-71
2021/05/12 09:08:18;;;;;;;3.90;3.60;;;19.30;33.80;;;;;;4991529;28;20508;-71
2021/05/12 09:10:43;;;;;;;3.00;2.80;;;19.30;33.80;;;;;;4991475;28;20632;-70
2021/05/12 09:13:30;;;;;;;3.03;2.83;;;19.20;33.70;;;;;;4991576;28;20173;-71
2021/05/12 09:16:21;;;;;;;3.27;3.07;;;19.30;33.80;;;;;;4991028;28;20235;-71
2021/05/12 09:18:49;;;;;;;3.23;3.03;;;19.20;33.70;;;;;;4990834;28;20443;-70
2021/05/12 09:21:15;;;;;;;3.37;3.20;;;19.20;33.70;;;;;;4991047;28;20417;-70
2021/05/12 09:23:43;;;;;;;3.60;3.37;;;19.20;33.70;;;;;;4991291;28;20453;-70
2021/05/12 09:26:16;;;;;;;2.60;2.40;;;19.20;33.70;;;;;;4989362;28;20944;-70
2021/05/12 09:28:43;;;;;;;3.00;2.90;;;19.10;33.70;;;;;;4990889;28;20437;-70
2021/05/12 09:31:15;;;;;;;3.20;3.03;;;19.20;33.70;;;;;;4991341;28;20412;-70
2021/05/12 09:33:43;;;;;;;2.97;2.87;;;19.20;33.70;;;;;;4990662;28;20775;-70
2021/05/12 09:36:09;;;;;;;2.90;2.70;;;19.10;33.70;;;;;;4990399;28;20417;-71
2021/05/12 09:38:36;;;;;;;3.73;3.20;;;19.10;33.70;;;;;;4989088;28;20552;-71
2021/05/12 09:41:13;;;;;;;4.40;3.50;;;19.10;33.70;;;;;;4990439;28;20670;-70
2021/05/12 09:43:48;;;;;;;3.10;2.90;;;19.10;33.70;;;;;;4990544;28;20471;-70
2021/05/12 09:46:21;;;;;;;3.10;2.90;;;19.10;33.70;;;;;;4990782;28;20412;-70
2021/05/12 09:49:09;;;;;;;4.17;3.27;;;19.10;33.70;;;;;;4990743;28;20406;-70
2021/05/12 09:51:38;;;;;;;3.97;3.53;;;19.10;33.70;;;;;;4991040;28;20920;-70
2021/05/12 09:54:21;;;;;;;3.27;3.03;;;19.10;33.70;;;;;;4990488;28;20496;-73
2021/05/12 09:56:54;;;;;;;2.83;2.73;;;19.10;33.60;;;;;;4991688;28;20424;-71
2021/05/12 09:59:23;;;;;;;3.33;3.10;;;19.10;33.70;;;;;;4990648;28;20444;-70
2021/05/12 10:01:53;;;;;;;3.30;3.10;;;19.10;33.70;;;;;;4990681;28;20764;-70
2021/05/12 10:04:28;;;;;;;2.83;2.73;;;19.10;33.70;;;;;;4990644;28;20953;-70
2021/05/12 10:06:56;;;;;;;2.70;2.53;;;19.10;33.80;;;;;;4990265;28;20415;-70
2021/05/12 10:09:26;;;;;;;3.10;2.90;;;19.00;33.60;;;;;;4990408;28;20429;-70
2021/05/12 10:12:08;;;;;;;2.80;2.70;;;19.00;33.60;;;;;;4988232;28;20414;-69
2021/05/12 10:14:36;;;;;;;3.37;3.17;;;19.00;33.60;;;;;;4992519;28;20500;-71
2021/05/12 10:17:06;;;;;;;2.87;2.77;;;19.00;33.60;;;;;;5009953;28;20420;-70
2021/05/12 10:19:33;;;;;;;2.50;2.40;;;19.00;33.60;;;;;;5009933;28;20440;-70
2021/05/12 10:22:01;;;;;;;4.17;3.00;;;19.00;33.70;;;;;;5009849;28;20436;-70
2021/05/12 10:24:27;;;;;;;2.97;2.70;;;19.00;34.10;;;;;;5009315;28;21001;-70
2021/05/12 10:26:54;;;;;;;2.97;2.77;;;19.10;34.20;;;;;;5009693;28;20776;-71
2021/05/12 10:29:21;;;;;;;3.30;3.17;;;19.10;34.20;;;;;;5011326;28;20447;-71
2021/05/12 10:31:48;;;;;;;3.30;3.00;;;19.10;34.90;;;;;;5009932;28;20458;-71
2021/05/12 10:34:38;;;;;;;4.43;3.17;;;19.10;34.20;;;;;;4993778;28;20457;-71
2021/05/12 10:37:22;;;;;;;3.10;3.00;;;19.10;34.10;;;;;;4989718;28;20413;-72
2021/05/12 10:39:53;;;;;;;3.60;3.43;;;19.10;34.20;;;;;;4988413;28;20591;-71
2021/05/12 10:43:29;;;;;;;3.13;2.90;;;19.10;34.10;;;;;;4989908;28;20416;-71
2021/05/12 10:48:31;;;;;;;3.00;2.80;;;19.10;34.20;;;;;;4989898;28;20499;-71
2021/05/12 10:50:58;;;;;;;5.20;3.20;;;19.10;34.20;;;;;;4990011;28;20424;-72
2021/05/12 10:53:29;;;;;;;4.63;3.60;;;19.10;34.20;;;;;;4990113;28;20421;-72
2021/05/12 10:55:58;;;;;;;3.80;3.60;;;19.10;34.20;;;;;;4989311;28;20556;-72
2021/05/12 10:58:25;;;;;;;3.83;3.53;;;19.10;34.20;;;;;;4989935;28;20455;-72
2021/05/12 11:00:56;;;;;;;3.80;3.50;;;19.10;34.20;;;;;;4988567;28;20448;-72
2021/05/12 11:03:22;;;;;;;4.03;3.67;;;19.10;34.10;;;;;;4988367;28;20543;-72
2021/05/12 11:05:56;;;;;;;4.13;3.83;;;19.10;34.10;;;;;;4993660;28;20539;-71
2021/05/12 11:08:22;;;;;;;3.87;3.67;;;19.10;34.20;;;;;;4993622;28;20783;-72
2021/05/12 11:11:05;;;;;;;4.33;3.80;;;19.10;34.20;;;;;;4993552;28;20483;-71
2021/05/12 11:13:33;;;;;;;4.73;4.27;;;19.10;34.30;;;;;;4993778;28;20174;-72
2021/05/12 11:16:03;;;;;;;6.70;4.83;;;19.10;34.30;;;;;;4993386;28;20483;-72
2021/05/12 11:18:39;;;;;;;4.83;4.43;;;19.10;34.30;;;;;;4993472;28;20409;-72
2021/05/12 11:21:22;;;;;;;4.30;3.90;;;19.10;34.30;;;;;;4994138;28;20441;-71
2021/05/12 11:24:07;;;;;;;5.77;4.93;;;19.10;34.30;;;;;;4994636;28;20528;-71
2021/05/12 11:31:08;;;;;;;4.90;4.47;;;19.10;34.30;;;;;;4996391;28;20453;-72
2021/05/12 11:31:55;;;;;;;8.40;4.60;;;19.10;34.40;;;;;;4996186;28;20468;-71
2021/05/12 11:34:21;;;;;;;3.97;3.67;;;19.10;34.40;;;;;;4994394;28;20471;-72
2021/05/12 11:36:46;;;;;;;5.30;4.87;;;19.10;34.40;;;;;;4992223;28;20453;-72
2021/05/12 11:39:12;;;;;;;5.03;4.50;;;19.10;34.50;;;;;;4993450;28;20193;-72
2021/05/12 11:41:40;;;;;;;5.20;4.50;;;19.10;34.40;;;;;;4993301;28;20233;-72
2021/05/12 11:44:06;;;;;;;6.20;4.77;;;19.20;34.40;;;;;;4993021;28;20197;-72
2021/05/12 11:46:39;;;;;;;6.60;4.00;;;19.10;34.30;;;;;;4992767;28;20413;-72
2021/05/12 11:49:14;;;;;;;5.33;4.83;;;19.20;34.30;;;;;;5007935;28;20434;-72
2021/05/12 11:51:45;;;;;;;4.33;3.97;;;19.20;34.40;;;;;;5012258;28;20408;-72
2021/05/12 11:54:24;;;;;;;5.77;4.30;;;19.20;34.40;;;;;;5012040;28;20423;-72
2021/05/12 11:56:58;;;;;;;4.50;4.20;;;19.20;34.40;;;;;;5012072;28;20413;-72
2021/05/12 11:59:26;;;;;;;4.57;4.03;;;19.20;34.40;;;;;;5011791;28;20428;-73
2021/05/12 12:02:01;;;;;;;5.17;4.00;;;19.20;34.40;;;;;;5011679;28;20408;-73
2021/05/12 12:04:34;;;;;;;7.93;4.30;;;19.20;34.40;;;;;;4994483;28;20466;-72
2021/05/12 12:06:59;;;;;;;7.30;4.03;;;19.20;34.40;;;;;;4992101;28;20468;-72
2021/05/12 12:09:27;;;;;;;4.57;4.17;;;19.10;34.30;;;;;;4991824;28;21039;-73
2021/05/12 12:11:56;;;;;;;4.50;4.10;;;19.10;34.30;;;;;;4992132;28;20171;-72
2021/05/12 12:14:28;;;;;;;6.57;4.57;;;19.20;34.40;;;;;;4992203;28;20409;-73
2021/05/12 12:16:54;;;;;;;5.70;5.20;;;19.20;34.60;;;;;;4990697;28;20443;-72
2021/05/12 12:19:20;;;;;;;12.20;6.27;;;19.20;34.50;;;;;;4990792;28;20948;-73
2021/05/12 12:21:49;;;;;;;9.17;5.97;;;19.20;34.80;;;;;;4992079;28;20284;-72
2021/05/12 12:24:17;;;;;;;7.20;5.87;;;19.20;34.80;;;;;;4991784;28;20452;-70
2021/05/12 12:26:47;;;;;;;8.73;5.40;;;19.20;34.80;;;;;;4991563;28;20437;-72
2021/05/12 12:29:13;;;;;;;9.83;5.43;;;19.10;34.70;;;;;;4991729;28;20472;-72
2021/05/12 12:31:50;;;;;;;8.30;5.80;;;19.10;34.70;;;;;;4991433;28;20933;-72
2021/05/12 12:34:28;;;;;;;6.37;5.10;;;19.20;34.70;;;;;;4990627;28;20596;-73
2021/05/12 12:36:57;;;;;;;11.23;6.10;;;19.20;34.70;;;;;;4991643;28;20827;-73
2021/05/12 12:42:29;;;;;;;8.37;4.60;;;19.10;34.60;;;;;;4991324;28;20782;-72
2021/05/12 12:45:20;;;;;;;6.23;4.50;;;19.10;34.50;;;;;;4991831;28;20708;-73
2021/05/12 12:47:54;;;;;;;7.80;5.30;;;19.10;34.50;;;;;;4988834;28;20421;-73
2021/05/12 12:50:21;;;;;;;5.77;5.17;;;19.10;34.50;;;;;;4991770;28;20444;-73
2021/05/12 12:52:47;;;;;;;5.80;5.20;;;19.10;34.50;;;;;;4991626;28;20427;-73
2021/05/12 12:55:25;;;;;;;5.70;4.77;;;19.10;34.50;;;;;;4991969;28;20923;-73
2021/05/12 12:57:55;;;;;;;5.90;4.60;;;19.10;34.40;;;;;;4991976;28;20413;-73
2021/05/12 13:00:32;;;;;;;6.40;4.80;;;19.10;34.40;;;;;;4991212;28;20432;-72
2021/05/12 13:03:22;;;;;;;7.30;5.10;;;19.10;34.40;;;;;;4991303;28;20472;-72